Impacts TAF Board
For situational awareness. Not to be used for flight planning purposes.
IDs:

KACV - Arcata Arpt, CA, US

Issued at 2329 UTC 05 Dec 2019
Updated at 0117 UTC 06 Dec 2019
Potential Impact None Slight Moderate High
Time0053Z 06/02Z 06/03Z 06/04Z 06/05Z 06/06Z 06/07Z 06/08Z 06/09Z 06/10Z 06/11Z 06/12Z 06/13Z 06/14Z>>
Type OBS PRVL PRVL PRVL PRVL PRVL PRVL PRVL PRVL PRVL PRVL PRVL PRVL PRVL
VIS 10 >6 6 6 6 6 6 6 6 6 6 6 6 6
CIG 65 50 50 50 50 50 50 50 50 50 50 50 50 50
Cover OVC BKN OVC OVC OVC OVC OVC OVC OVC OVC OVC OVC OVC OVC
FltCat VFR VFR VFR VFR VFR VFR VFR VFR VFR VFR VFR VFR VFR VFR
WX -- -- BR BR BR BR BR BR BR BR BR BR BR BR
WDir VRB 170 140 140 140 140 140 140 140 140 140 140 140 140
WSpd 0 8 7 7 7 7 7 7 10 10 10 10 10 10
WGst -- -- 15 15 15 15 15 15 20 20 20 20 20 20
Raw TAF
KACV 052329Z 0600/0624 17008KT P6SM SCT025 BKN050
  FM060300 14007G15KT 6SM BR OVC050
  FM060900 14010G20KT 6SM BR OVC050 WS020/16035KT
  FM061500 14014KT P6SM -RA OVC050


Raw METAR
KACV 060053Z AUTO 00000KT 10SM FEW050 OVC065 13/10 A2992 RMK AO2 SLP138 T01330100
KACV 052353Z AUTO 36003KT 10SM BKN060 13/10 A2992 RMK AO2 SLP138 T01330100 10178 20128 57009
KACV 052253Z AUTO 03004KT 10SM SCT060 15/10 A2993 RMK AO2 SLP141 T01500100

METAR Board
Radar Display
Forecast Discussion
For situational awareness. Not to be used for flight planning purposes.